createdAt,value
2023-01-17T00:02:20.895Z,1.56
2023-01-17T00:05:07.869Z,1.55
2023-01-17T00:07:54.479Z,1.51
2023-01-17T00:10:25.422Z,1.54
2023-01-17T00:12:58.427Z,1.60
2023-01-17T00:15:28.698Z,1.67
2023-01-17T00:17:58.551Z,1.69
2023-01-17T00:20:48.017Z,1.69
2023-01-17T00:23:41.007Z,1.71
2023-01-17T00:26:18.727Z,1.73
2023-01-17T00:28:48.903Z,1.65
2023-01-17T00:31:17.190Z,1.63
2023-01-17T00:33:45.553Z,1.60
2023-01-17T00:36:14.006Z,1.50
2023-01-17T00:38:42.210Z,1.41
2023-01-17T00:41:13.157Z,1.32
2023-01-17T00:43:59.650Z,1.24
2023-01-17T00:46:46.279Z,1.23
2023-01-17T00:49:32.870Z,1.22
2023-01-17T00:52:19.834Z,1.13
2023-01-17T00:55:06.429Z,1.12
2023-01-17T00:57:53.117Z,1.10
2023-01-17T01:00:39.887Z,1.14
2023-01-17T01:03:30.418Z,1.29
2023-01-17T01:06:17.102Z,1.41
2023-01-17T01:09:03.724Z,1.41
2023-01-17T01:11:50.511Z,1.38
2023-01-17T01:14:37.082Z,1.41
2023-01-17T01:17:24.018Z,1.42
2023-01-17T01:20:10.599Z,1.37
2023-01-17T01:22:57.588Z,1.39
2023-01-17T01:25:44.194Z,1.43
2023-01-17T01:28:32.857Z,1.45
2023-01-17T01:31:23.489Z,1.46
2023-01-17T01:33:52.866Z,1.40
2023-01-17T01:36:21.118Z,1.36
2023-01-17T01:38:50.386Z,1.28
2023-01-17T01:41:18.693Z,1.21
2023-01-17T01:43:49.027Z,1.15
2023-01-17T01:46:23.191Z,1.12
2023-01-17T01:49:15.309Z,1.06
2023-01-17T01:51:51.127Z,0.99
2023-01-17T01:54:45.022Z,0.96
2023-01-17T01:57:17.113Z,0.96
2023-01-17T01:59:54.425Z,0.99
2023-01-17T02:02:22.649Z,1.00
2023-01-17T02:04:51.649Z,1.02
2023-01-17T02:07:33.335Z,1.07
2023-01-17T02:10:03.122Z,1.10
2023-01-17T02:12:31.364Z,1.11
2023-01-17T02:15:00.179Z,1.12
2023-01-17T02:18:06.433Z,1.12
2023-01-17T02:21:19.127Z,1.14
2023-01-17T02:24:17.991Z,1.17
2023-01-17T02:27:00.765Z,1.18
2023-01-17T02:29:53.444Z,1.22
2023-01-17T02:32:27.264Z,1.29
2023-01-17T02:35:22.031Z,1.40
2023-01-17T02:38:03.995Z,1.38
2023-01-17T02:40:41.980Z,1.35
2023-01-17T02:43:14.615Z,1.36
2023-01-17T02:45:43.268Z,1.36
2023-01-17T02:48:14.991Z,1.35
2023-01-17T02:50:46.129Z,1.38
2023-01-17T02:53:31.177Z,1.41
2023-01-17T02:56:36.414Z,1.45
2023-01-17T02:59:33.869Z,1.42
2023-01-17T03:02:12.905Z,1.37
2023-01-17T03:04:49.846Z,1.36
2023-01-17T03:07:24.151Z,1.37
2023-01-17T03:10:01.579Z,1.37
2023-01-17T03:12:31.471Z,1.37
2023-01-17T03:14:59.653Z,1.39
2023-01-17T03:17:32.715Z,1.40
2023-01-17T03:20:01.140Z,1.41
2023-01-17T03:22:29.421Z,1.40
2023-01-17T03:24:57.661Z,1.38
2023-01-17T03:27:25.684Z,1.42
2023-01-17T03:29:53.902Z,1.48
2023-01-17T03:32:22.036Z,1.51
2023-01-17T03:34:50.277Z,1.53
2023-01-17T03:37:18.572Z,1.58
2023-01-17T03:39:46.698Z,1.64
2023-01-17T03:42:14.867Z,1.68
2023-01-17T03:44:43.056Z,1.73
2023-01-17T03:47:12.345Z,1.79
2023-01-17T03:49:40.895Z,1.85
2023-01-17T03:52:09.257Z,1.80
2023-01-17T03:54:37.432Z,1.77
2023-01-17T03:57:05.700Z,1.77
2023-01-17T03:59:34.184Z,1.80
2023-01-17T04:02:03.119Z,1.73
2023-01-17T04:04:31.217Z,1.72
2023-01-17T04:06:59.364Z,1.66
2023-01-17T04:09:27.527Z,1.65
2023-01-17T04:11:55.730Z,1.66
2023-01-17T04:14:23.776Z,1.62
2023-01-17T04:16:51.861Z,1.47
2023-01-17T04:19:20.905Z,1.42
2023-01-17T04:21:49.307Z,1.40
2023-01-17T04:24:18.136Z,1.34
2023-01-17T04:26:46.348Z,1.27
2023-01-17T04:29:14.686Z,1.24
2023-01-17T04:31:43.096Z,1.25
2023-01-17T04:34:11.537Z,1.25
2023-01-17T04:36:39.740Z,1.23
2023-01-17T04:39:07.748Z,1.17
2023-01-17T04:41:36.136Z,1.12
2023-01-17T04:44:04.623Z,1.05
2023-01-17T04:46:32.779Z,1.04
2023-01-17T04:49:01.087Z,1.04
2023-01-17T04:51:29.330Z,1.02
2023-01-17T04:53:57.465Z,1.00
2023-01-17T04:56:25.521Z,0.98
2023-01-17T04:58:53.724Z,0.99
2023-01-17T05:01:22.003Z,1.00
2023-01-17T05:03:50.648Z,1.00
2023-01-17T05:06:18.857Z,1.03
2023-01-17T05:08:47.026Z,1.04
2023-01-17T05:11:15.148Z,1.01
2023-01-17T05:13:43.235Z,1.00
2023-01-17T05:16:11.298Z,1.01
2023-01-17T05:18:39.510Z,1.00
2023-01-17T05:21:07.538Z,0.97
2023-01-17T05:23:35.730Z,0.93
2023-01-17T05:26:03.876Z,0.89
2023-01-17T05:28:33.087Z,0.91
2023-01-17T05:31:01.162Z,0.94
2023-01-17T05:33:30.039Z,0.92
2023-01-17T05:35:58.598Z,0.87
2023-01-17T05:38:26.736Z,0.85
2023-01-17T05:40:54.971Z,0.90
2023-01-17T05:43:23.210Z,0.92
2023-01-17T05:45:51.354Z,0.88
2023-01-17T05:48:19.681Z,0.88
2023-01-17T05:50:47.856Z,0.83
2023-01-17T05:53:16.934Z,0.77
2023-01-17T05:55:45.425Z,0.79
2023-01-17T05:58:20.477Z,0.80
2023-01-17T06:00:49.762Z,0.77
2023-01-17T06:03:18.310Z,0.78
2023-01-17T06:05:47.148Z,0.83
2023-01-17T06:08:15.970Z,0.89
2023-01-17T06:10:44.361Z,0.92
2023-01-17T06:13:15.394Z,0.94
2023-01-17T06:15:43.781Z,0.96
2023-01-17T06:18:15.393Z,0.99
2023-01-17T06:20:44.210Z,0.98
2023-01-17T06:23:14.162Z,0.97
2023-01-17T06:25:45.030Z,1.01
2023-01-17T06:28:15.789Z,1.07
2023-01-17T06:30:44.789Z,1.15
2023-01-17T06:33:14.049Z,1.23
2023-01-17T06:35:50.412Z,1.26
2023-01-17T06:38:19.381Z,1.31
2023-01-17T06:40:49.455Z,1.36
2023-01-17T06:43:18.096Z,1.38
2023-01-17T06:45:46.393Z,1.37
2023-01-17T06:48:15.680Z,1.44
2023-01-17T06:50:44.103Z,1.52
2023-01-17T06:53:12.197Z,1.61
2023-01-17T06:55:40.477Z,1.67
2023-01-17T06:58:09.318Z,1.72
2023-01-17T07:00:41.103Z,1.74
2023-01-17T07:03:20.639Z,1.74
2023-01-17T07:05:50.551Z,1.80
2023-01-17T07:08:21.605Z,1.88
2023-01-17T07:10:49.764Z,1.97
2023-01-17T07:13:18.796Z,2.03
2023-01-17T07:15:48.608Z,2.10
2023-01-17T07:18:20.738Z,2.22
2023-01-17T07:20:50.248Z,2.32
2023-01-17T07:23:19.972Z,2.35
2023-01-17T07:25:56.890Z,2.36
2023-01-17T07:28:26.302Z,2.34
2023-01-17T07:30:54.701Z,2.35
2023-01-17T07:33:24.324Z,2.37
2023-01-17T07:35:53.285Z,2.46
2023-01-17T07:38:21.525Z,2.52
2023-01-17T07:40:49.706Z,2.57
2023-01-17T07:43:17.931Z,2.56
2023-01-17T07:45:51.851Z,2.62
2023-01-17T07:48:22.621Z,2.73
2023-01-17T07:50:54.987Z,2.82
2023-01-17T07:53:25.241Z,2.89
2023-01-17T07:55:53.831Z,2.98
2023-01-17T07:58:23.163Z,3.06
2023-01-17T08:00:52.519Z,3.14
2023-01-17T08:03:21.753Z,3.23
2023-01-17T08:05:55.529Z,3.30
2023-01-17T08:08:23.964Z,3.36
2023-01-17T08:10:52.202Z,3.41
2023-01-17T08:13:22.035Z,3.39
2023-01-17T08:15:51.082Z,3.43
2023-01-17T08:18:19.272Z,3.48
2023-01-17T08:20:47.531Z,3.55
2023-01-17T08:23:15.882Z,3.65
2023-01-17T08:25:44.748Z,3.79
2023-01-17T08:28:13.095Z,3.92
2023-01-17T08:30:41.253Z,4.01
2023-01-17T08:33:09.562Z,4.05
2023-01-17T08:35:37.641Z,4.08
2023-01-17T08:38:06.141Z,4.10
2023-01-17T08:40:34.323Z,4.09
2023-01-17T08:43:03.984Z,4.08
2023-01-17T08:45:32.399Z,4.04
2023-01-17T08:48:00.554Z,4.02
2023-01-17T08:50:28.761Z,4.09
2023-01-17T08:53:01.276Z,4.24
2023-01-17T08:55:29.881Z,4.39
2023-01-17T08:57:58.057Z,4.64
2023-01-17T09:00:28.635Z,4.81
2023-01-17T09:02:56.963Z,4.90
2023-01-17T09:05:25.219Z,4.99
2023-01-17T09:07:54.644Z,5.16
2023-01-17T09:10:23.784Z,5.33
2023-01-17T09:12:52.227Z,5.56
2023-01-17T09:15:20.400Z,5.72
2023-01-17T09:17:48.510Z,5.79
2023-01-17T09:20:17.094Z,5.87
2023-01-17T09:22:46.259Z,6.03
2023-01-17T09:25:15.524Z,6.13
2023-01-17T09:27:47.514Z,6.19
2023-01-17T09:30:16.207Z,6.25
2023-01-17T09:32:52.362Z,6.32
2023-01-17T09:35:20.855Z,6.38
2023-01-17T09:37:52.620Z,6.44
2023-01-17T09:40:24.745Z,6.53
2023-01-17T09:43:02.753Z,6.62
2023-01-17T09:45:34.030Z,6.71
2023-01-17T09:48:08.972Z,6.70
2023-01-17T09:51:08.653Z,6.64
2023-01-17T09:53:41.719Z,6.59
2023-01-17T09:56:16.071Z,6.55
2023-01-17T09:59:35.309Z,6.56
2023-01-17T10:02:28.784Z,6.57
2023-01-17T10:05:06.521Z,6.58
2023-01-17T10:07:50.927Z,6.62
2023-01-17T10:10:40.932Z,6.85
2023-01-17T10:13:21.507Z,7.23
2023-01-17T10:16:01.601Z,7.37
2023-01-17T10:18:30.588Z,7.63
2023-01-17T10:21:09.698Z,7.74
2023-01-17T10:23:42.102Z,7.67
2023-01-17T10:26:19.511Z,7.69
2023-01-17T10:28:51.609Z,7.85
2023-01-17T10:31:25.350Z,8.17
2023-01-17T10:34:18.683Z,8.61
2023-01-17T10:37:11.549Z,9.09
2023-01-17T10:39:39.819Z,9.35
2023-01-17T10:42:35.330Z,9.38
2023-01-17T10:45:16.895Z,9.25
2023-01-17T10:47:51.360Z,9.29
2023-01-17T10:50:23.688Z,9.68
2023-01-17T10:52:59.077Z,9.98
2023-01-17T10:55:48.546Z,10.26
2023-01-17T10:58:16.613Z,10.42
2023-01-17T11:01:03.067Z,10.64
2023-01-17T11:03:32.343Z,10.82
2023-01-17T11:06:33.868Z,10.94
2023-01-17T11:09:03.578Z,11.02
2023-01-17T11:11:34.438Z,11.09
2023-01-17T11:14:25.805Z,11.12
2023-01-17T11:17:02.640Z,11.28
2023-01-17T11:19:36.258Z,11.33
2023-01-17T11:22:09.568Z,11.45
2023-01-17T11:24:53.921Z,11.70
2023-01-17T11:27:42.332Z,12.02
2023-01-17T11:30:17.687Z,12.24
2023-01-17T11:33:06.097Z,12.38
2023-01-17T11:35:38.928Z,12.69
2023-01-17T11:38:14.954Z,13.03
2023-01-17T11:40:45.021Z,13.06
2023-01-17T11:43:18.532Z,13.03
2023-01-17T11:46:01.536Z,13.32
2023-01-17T11:48:37.883Z,13.83
2023-01-17T11:51:24.216Z,13.91
2023-01-17T11:53:54.674Z,14.02
2023-01-17T11:56:37.708Z,14.31
2023-01-17T11:59:37.579Z,14.54
2023-01-17T12:02:33.738Z,14.74
2023-01-17T12:05:02.129Z,14.71
2023-01-17T12:07:43.185Z,13.90
2023-01-17T12:10:11.515Z,13.62
2023-01-17T12:13:02.620Z,13.46
2023-01-17T12:15:57.838Z,14.06
2023-01-17T12:18:34.937Z,14.49
2023-01-17T12:21:17.761Z,14.52
2023-01-17T12:24:21.797Z,14.39
2023-01-17T12:26:54.677Z,14.70
2023-01-17T12:29:43.712Z,15.30
2023-01-17T12:32:33.231Z,15.74
2023-01-17T12:35:13.006Z,14.71
2023-01-17T12:37:44.627Z,14.16
2023-01-17T12:40:35.561Z,14.23
2023-01-17T12:43:08.951Z,14.79
2023-01-17T12:45:45.843Z,15.42
2023-01-17T12:48:20.519Z,15.70
2023-01-17T12:51:05.940Z,16.06
2023-01-17T12:54:02.150Z,15.82
2023-01-17T12:56:59.421Z,16.17
2023-01-17T12:59:46.766Z,16.33
2023-01-17T13:02:26.300Z,16.78
2023-01-17T13:05:03.808Z,17.04
2023-01-17T13:07:50.825Z,17.41
2023-01-17T13:10:22.621Z,17.30
2023-01-17T13:12:51.918Z,17.01
2023-01-17T13:15:25.958Z,16.69
2023-01-17T13:18:03.029Z,16.43
2023-01-17T13:21:09.394Z,16.58
2023-01-17T13:24:31.568Z,16.45
2023-01-17T13:27:24.228Z,15.58
2023-01-17T13:30:04.555Z,14.21
2023-01-17T13:32:51.481Z,13.36
2023-01-17T13:35:28.547Z,13.32
2023-01-17T13:38:22.916Z,12.46
2023-01-17T13:40:55.043Z,12.06
2023-01-17T13:43:27.043Z,11.65
2023-01-17T13:45:57.820Z,11.31
2023-01-17T13:48:28.202Z,10.89
2023-01-17T13:50:57.846Z,10.54
2023-01-17T13:53:29.421Z,10.20
2023-01-17T13:56:18.478Z,9.91
2023-01-17T13:58:54.604Z,9.67
2023-01-17T14:01:22.968Z,9.44
2023-01-17T14:03:52.675Z,9.29
2023-01-17T14:06:36.073Z,9.07
2023-01-17T14:09:22.590Z,8.85
2023-01-17T14:12:15.363Z,8.52
2023-01-17T14:14:48.714Z,8.33
2023-01-17T14:17:25.659Z,8.28
2023-01-17T14:20:06.279Z,8.21
2023-01-17T14:22:42.090Z,8.06
2023-01-17T14:25:15.132Z,7.97
2023-01-17T14:27:43.480Z,7.77
2023-01-17T14:30:18.347Z,7.36
2023-01-17T14:33:01.518Z,7.12
2023-01-17T14:35:34.472Z,6.98
2023-01-17T14:38:12.462Z,6.88
2023-01-17T14:40:41.181Z,6.79
2023-01-17T14:43:16.109Z,6.57
2023-01-17T14:45:45.196Z,6.31
2023-01-17T14:48:20.490Z,6.05
2023-01-17T14:50:54.939Z,5.86
2023-01-17T14:53:32.260Z,5.67
2023-01-17T14:56:12.381Z,5.49
2023-01-17T14:58:41.568Z,5.40
2023-01-17T15:01:19.664Z,5.26
2023-01-17T15:03:54.090Z,5.15
2023-01-17T15:06:33.113Z,5.09
2023-01-17T15:09:01.426Z,4.95
2023-01-17T15:11:33.176Z,4.85
2023-01-17T15:14:08.213Z,4.76
2023-01-17T15:16:38.378Z,4.60
2023-01-17T15:19:14.979Z,4.44
2023-01-17T15:21:45.823Z,4.30
2023-01-17T15:24:21.742Z,4.18
2023-01-17T15:26:50.704Z,4.05
2023-01-17T15:29:28.379Z,3.93
2023-01-17T15:31:58.651Z,3.79
2023-01-17T15:34:30.035Z,3.74
2023-01-17T15:37:04.753Z,3.67
2023-01-17T15:39:40.494Z,3.66
2023-01-17T15:42:21.886Z,3.58
2023-01-17T15:44:59.443Z,3.57
2023-01-17T15:47:40.056Z,3.62
2023-01-17T15:50:21.186Z,3.66
2023-01-17T15:52:50.675Z,3.66
2023-01-17T15:55:31.040Z,3.63
2023-01-17T15:58:00.545Z,3.69
2023-01-17T16:00:32.834Z,3.75
2023-01-17T16:03:02.320Z,3.72
2023-01-17T16:05:33.495Z,3.77
2023-01-17T16:08:06.111Z,3.81
2023-01-17T16:10:39.176Z,3.82
2023-01-17T16:13:10.033Z,3.84
2023-01-17T16:15:40.068Z,3.81
2023-01-17T16:18:36.086Z,3.82
2023-01-17T16:21:21.321Z,3.87
2023-01-17T16:23:50.242Z,3.86
2023-01-17T16:26:18.775Z,3.83
2023-01-17T16:28:47.336Z,3.86
2023-01-17T16:31:17.480Z,3.91
2023-01-17T16:33:49.515Z,3.86
2023-01-17T16:36:18.322Z,3.84
2023-01-17T16:38:49.898Z,3.84
2023-01-17T16:41:19.331Z,3.82
2023-01-17T16:43:57.742Z,3.78
2023-01-17T16:46:27.153Z,3.69
2023-01-17T16:48:55.989Z,3.63
2023-01-17T16:51:24.286Z,3.60
2023-01-17T16:53:52.708Z,3.60
2023-01-17T16:56:21.070Z,3.62
2023-01-17T16:58:52.120Z,3.66
2023-01-17T17:01:22.767Z,3.71
2023-01-17T17:03:51.421Z,3.77
2023-01-17T17:06:20.064Z,3.80
2023-01-17T17:08:48.369Z,3.84
2023-01-17T17:11:20.174Z,3.87
2023-01-17T17:13:50.475Z,3.88
2023-01-17T17:16:30.068Z,3.95
2023-01-17T17:19:04.358Z,4.01
2023-01-17T17:21:35.162Z,4.10
2023-01-17T17:24:05.537Z,4.16
2023-01-17T17:26:36.121Z,4.18
2023-01-17T17:29:06.782Z,4.22
2023-01-17T17:31:35.039Z,4.26
2023-01-17T17:34:05.320Z,4.30
2023-01-17T17:36:35.266Z,4.34
2023-01-17T17:39:05.986Z,4.39
2023-01-17T17:41:39.260Z,4.37
2023-01-17T17:44:07.398Z,4.31
2023-01-17T17:46:37.298Z,4.25
2023-01-17T17:49:06.817Z,4.21
2023-01-17T17:51:38.364Z,4.21
2023-01-17T17:54:09.995Z,4.23
2023-01-17T17:56:40.515Z,4.20
2023-01-17T17:59:10.349Z,4.21
2023-01-17T18:01:38.528Z,4.21
2023-01-17T18:04:08.240Z,4.22
2023-01-17T18:06:36.620Z,4.28
2023-01-17T18:09:10.158Z,4.34
2023-01-17T18:11:40.813Z,4.37
2023-01-17T18:14:12.662Z,4.37
2023-01-17T18:16:43.947Z,4.38
2023-01-17T18:19:20.766Z,4.41
2023-01-17T18:21:50.506Z,4.42
2023-01-17T18:24:21.600Z,4.39
2023-01-17T18:26:52.414Z,4.38
2023-01-17T18:29:21.922Z,4.43
2023-01-17T18:31:52.062Z,4.47
2023-01-17T18:34:24.391Z,4.51
2023-01-17T18:36:53.750Z,4.55
2023-01-17T18:39:25.593Z,4.57
2023-01-17T18:41:54.617Z,4.54
2023-01-17T18:44:23.341Z,4.54
2023-01-17T18:46:54.736Z,4.60
2023-01-17T18:49:27.367Z,4.64
2023-01-17T18:51:55.398Z,4.69
2023-01-17T18:54:23.501Z,4.73
2023-01-17T18:56:51.655Z,4.78
2023-01-17T18:59:20.460Z,4.86
2023-01-17T19:01:49.455Z,4.91
2023-01-17T19:04:19.042Z,4.94
2023-01-17T19:06:48.592Z,4.94
2023-01-17T19:09:17.444Z,4.92
2023-01-17T19:11:47.584Z,4.88
2023-01-17T19:14:16.981Z,4.86
2023-01-17T19:16:45.199Z,4.84
2023-01-17T19:19:15.551Z,4.84
2023-01-17T19:21:44.099Z,4.80
2023-01-17T19:24:13.312Z,4.79
2023-01-17T19:26:43.464Z,4.81
2023-01-17T19:29:12.397Z,4.79
2023-01-17T19:31:43.365Z,4.76
2023-01-17T19:34:14.759Z,4.71
2023-01-17T19:36:43.570Z,4.68
2023-01-17T19:39:11.968Z,4.67
2023-01-17T19:41:45.112Z,4.67
2023-01-17T19:44:15.281Z,4.68
2023-01-17T19:46:45.575Z,4.71
2023-01-17T19:49:13.734Z,4.75
2023-01-17T19:51:42.361Z,4.79
2023-01-17T19:54:10.694Z,4.86
2023-01-17T19:56:39.140Z,4.92
2023-01-17T19:59:08.289Z,5.06
2023-01-17T20:01:36.722Z,5.23
2023-01-17T20:04:05.415Z,5.42
2023-01-17T20:06:36.997Z,5.59
2023-01-17T20:09:06.073Z,5.73
2023-01-17T20:11:34.470Z,5.89
2023-01-17T20:14:05.611Z,6.02
2023-01-17T20:16:37.051Z,6.17
2023-01-17T20:19:05.395Z,6.29
2023-01-17T20:21:34.417Z,6.39
2023-01-17T20:24:05.406Z,6.46
2023-01-17T20:26:35.328Z,6.53
2023-01-17T20:29:11.065Z,6.57
2023-01-17T20:31:40.773Z,6.65
2023-01-17T20:34:12.243Z,6.68
2023-01-17T20:36:41.966Z,6.73
2023-01-17T20:39:12.501Z,6.75
2023-01-17T20:41:42.527Z,6.74
2023-01-17T20:44:14.121Z,6.72
2023-01-17T20:46:43.216Z,6.71
2023-01-17T20:49:17.340Z,6.69
2023-01-17T20:51:46.549Z,6.69
2023-01-17T20:54:19.561Z,6.68
2023-01-17T20:56:48.009Z,6.65
2023-01-17T20:59:22.279Z,6.64
2023-01-17T21:01:51.863Z,6.65
2023-01-17T21:04:25.784Z,6.67
2023-01-17T21:06:54.848Z,6.68
2023-01-17T21:09:23.212Z,6.66
2023-01-17T21:11:51.961Z,6.65
2023-01-17T21:14:21.825Z,6.69
2023-01-17T21:16:50.484Z,6.70
2023-01-17T21:19:18.672Z,6.66
2023-01-17T21:21:48.532Z,6.66
2023-01-17T21:24:18.974Z,6.65
2023-01-17T21:26:47.387Z,6.66
2023-01-17T21:29:16.200Z,6.68
2023-01-17T21:31:45.285Z,6.69
2023-01-17T21:34:13.881Z,6.71
2023-01-17T21:36:42.629Z,6.72
2023-01-17T21:39:15.790Z,6.71
2023-01-17T21:41:45.923Z,6.74
2023-01-17T21:44:20.305Z,6.75
2023-01-17T21:46:49.645Z,6.73
2023-01-17T21:49:17.875Z,6.73
2023-01-17T21:51:55.343Z,6.72
2023-01-17T21:54:44.585Z,6.75
2023-01-17T21:57:33.441Z,6.79
2023-01-17T22:00:01.913Z,6.81
2023-01-17T22:02:41.037Z,6.85
2023-01-17T22:05:10.316Z,6.86
2023-01-17T22:08:01.224Z,6.88
2023-01-17T22:10:29.271Z,6.97
2023-01-17T22:12:57.476Z,7.04
2023-01-17T22:15:25.632Z,7.07
2023-01-17T22:17:53.856Z,7.07
2023-01-17T22:20:22.219Z,7.07
2023-01-17T22:22:50.245Z,7.12
2023-01-17T22:25:18.382Z,7.17
2023-01-17T22:27:46.731Z,7.19
2023-01-17T22:30:15.073Z,7.22
2023-01-17T22:32:43.127Z,7.20
2023-01-17T22:35:11.346Z,7.20
2023-01-17T22:37:39.509Z,7.21
2023-01-17T22:40:10.098Z,7.17
2023-01-17T22:42:38.785Z,7.18
2023-01-17T22:45:07.918Z,7.20
2023-01-17T22:47:37.077Z,7.20
2023-01-17T22:50:07.624Z,7.22
2023-01-17T22:52:35.872Z,7.21
2023-01-17T22:55:04.789Z,7.19
2023-01-17T22:57:33.195Z,7.18
2023-01-17T23:00:01.260Z,7.17
2023-01-17T23:02:29.696Z,7.17
2023-01-17T23:04:57.819Z,7.14
2023-01-17T23:07:27.060Z,7.13
2023-01-17T23:09:55.283Z,7.15
2023-01-17T23:12:23.332Z,7.16
2023-01-17T23:15:10.079Z,7.16
2023-01-17T23:17:56.762Z,7.17
2023-01-17T23:20:24.908Z,7.13
2023-01-17T23:22:53.200Z,7.10
2023-01-17T23:25:22.120Z,7.08
2023-01-17T23:28:08.894Z,7.07
2023-01-17T23:30:39.426Z,7.06
2023-01-17T23:33:10.302Z,7.07
2023-01-17T23:35:42.095Z,7.11
2023-01-17T23:38:30.903Z,7.12
2023-01-17T23:41:25.886Z,7.13
2023-01-17T23:43:56.190Z,7.17
2023-01-17T23:46:25.926Z,7.18
2023-01-17T23:48:55.152Z,7.20
2023-01-17T23:51:23.338Z,7.20
2023-01-17T23:53:57.484Z,7.22
2023-01-17T23:56:25.874Z,7.24
2023-01-17T23:58:54.256Z,7.24
